sensor_id;sensor_type;location;lat;lon;timestamp;temperature;humidity
72206;DHT22;60111;48.286;7.812;2023-02-24T00:00:14;7.70;82.20
72206;DHT22;60111;48.286;7.812;2023-02-24T00:02:51;7.70;81.40
72206;DHT22;60111;48.286;7.812;2023-02-24T00:05:24;7.50;81.50
72206;DHT22;60111;48.286;7.812;2023-02-24T00:07:56;7.40;82.10
72206;DHT22;60111;48.286;7.812;2023-02-24T00:10:29;7.30;83.30
72206;DHT22;60111;48.286;7.812;2023-02-24T00:13:03;7.20;83.80
72206;DHT22;60111;48.286;7.812;2023-02-24T00:15:35;7.20;84.80
72206;DHT22;60111;48.286;7.812;2023-02-24T00:18:08;7.20;85.60
72206;DHT22;60111;48.286;7.812;2023-02-24T00:20:41;7.20;85.60
72206;DHT22;60111;48.286;7.812;2023-02-24T00:23:13;7.10;84.80
72206;DHT22;60111;48.286;7.812;2023-02-24T00:25:47;7.10;84.80
72206;DHT22;60111;48.286;7.812;2023-02-24T00:28:19;7.10;84.80
72206;DHT22;60111;48.286;7.812;2023-02-24T00:30:52;7.00;85.30
72206;DHT22;60111;48.286;7.812;2023-02-24T00:33:26;7.00;85.80
72206;DHT22;60111;48.286;7.812;2023-02-24T00:36:07;7.00;86.20
72206;DHT22;60111;48.286;7.812;2023-02-24T00:38:41;7.00;86.50
72206;DHT22;60111;48.286;7.812;2023-02-24T00:41:19;7.10;86.50
72206;DHT22;60111;48.286;7.812;2023-02-24T00:43:52;7.20;85.20
72206;DHT22;60111;48.286;7.812;2023-02-24T00:46:25;7.20;84.30
72206;DHT22;60111;48.286;7.812;2023-02-24T00:49:00;7.20;84.20
72206;DHT22;60111;48.286;7.812;2023-02-24T00:51:42;7.20;84.50
72206;DHT22;60111;48.286;7.812;2023-02-24T00:54:16;7.30;84.30
72206;DHT22;60111;48.286;7.812;2023-02-24T00:56:49;7.40;84.40
72206;DHT22;60111;48.286;7.812;2023-02-24T00:59:22;7.40;84.80
72206;DHT22;60111;48.286;7.812;2023-02-24T01:01:54;7.50;84.60
72206;DHT22;60111;48.286;7.812;2023-02-24T01:04:27;7.50;84.70
72206;DHT22;60111;48.286;7.812;2023-02-24T01:06:59;7.70;84.20
72206;DHT22;60111;48.286;7.812;2023-02-24T01:09:32;7.60;83.80
72206;DHT22;60111;48.286;7.812;2023-02-24T01:12:07;7.60;83.80
72206;DHT22;60111;48.286;7.812;2023-02-24T01:14:54;7.50;83.90
72206;DHT22;60111;48.286;7.812;2023-02-24T01:17:26;7.50;84.20
72206;DHT22;60111;48.286;7.812;2023-02-24T01:19:59;7.50;83.70
72206;DHT22;60111;48.286;7.812;2023-02-24T01:22:33;7.40;83.50
72206;DHT22;60111;48.286;7.812;2023-02-24T01:25:06;7.40;84.20
72206;DHT22;60111;48.286;7.812;2023-02-24T01:27:40;7.30;84.30
72206;DHT22;60111;48.286;7.812;2023-02-24T01:30:12;7.30;84.70
72206;DHT22;60111;48.286;7.812;2023-02-24T01:32:46;7.30;84.70
72206;DHT22;60111;48.286;7.812;2023-02-24T01:35:18;7.30;84.90
72206;DHT22;60111;48.286;7.812;2023-02-24T01:37:51;7.30;85.10
72206;DHT22;60111;48.286;7.812;2023-02-24T01:40:23;7.30;84.70
72206;DHT22;60111;48.286;7.812;2023-02-24T01:42:57;7.30;84.10
72206;DHT22;60111;48.286;7.812;2023-02-24T01:45:30;7.20;84.70
72206;DHT22;60111;48.286;7.812;2023-02-24T01:48:06;7.30;84.70
72206;DHT22;60111;48.286;7.812;2023-02-24T01:50:40;7.40;84.40
72206;DHT22;60111;48.286;7.812;2023-02-24T01:53:12;7.40;84.40
72206;DHT22;60111;48.286;7.812;2023-02-24T01:55:47;7.30;84.80
72206;DHT22;60111;48.286;7.812;2023-02-24T01:58:27;7.30;85.10
72206;DHT22;60111;48.286;7.812;2023-02-24T02:00:56;7.30;85.00
72206;DHT22;60111;48.286;7.812;2023-02-24T02:03:32;7.30;84.90
72206;DHT22;60111;48.286;7.812;2023-02-24T02:06:12;7.30;85.30
72206;DHT22;60111;48.286;7.812;2023-02-24T02:08:42;7.20;85.90
72206;DHT22;60111;48.286;7.812;2023-02-24T02:11:16;7.20;86.00
72206;DHT22;60111;48.286;7.812;2023-02-24T02:13:54;7.20;86.70
72206;DHT22;60111;48.286;7.812;2023-02-24T02:27:34;7.50;86.40
72206;DHT22;60111;48.286;7.812;2023-02-24T02:33:18;7.60;86.30
72206;DHT22;60111;48.286;7.812;2023-02-24T02:41:52;7.70;85.40
72206;DHT22;60111;48.286;7.812;2023-02-24T02:44:37;7.60;86.00
72206;DHT22;60111;48.286;7.812;2023-02-24T02:47:33;7.60;85.90
72206;DHT22;60111;48.286;7.812;2023-02-24T02:50:18;7.60;86.20
72206;DHT22;60111;48.286;7.812;2023-02-24T02:52:59;7.60;86.80
72206;DHT22;60111;48.286;7.812;2023-02-24T02:55:38;7.60;86.90
72206;DHT22;60111;48.286;7.812;2023-02-24T02:58:14;7.60;86.40
72206;DHT22;60111;48.286;7.812;2023-02-24T03:00:50;7.60;86.40
72206;DHT22;60111;48.286;7.812;2023-02-24T03:03:25;7.60;86.60
72206;DHT22;60111;48.286;7.812;2023-02-24T03:06:01;7.60;87.00
72206;DHT22;60111;48.286;7.812;2023-02-24T03:08:36;7.60;86.70
72206;DHT22;60111;48.286;7.812;2023-02-24T03:11:12;7.60;86.70
72206;DHT22;60111;48.286;7.812;2023-02-24T03:13:47;7.50;87.20
72206;DHT22;60111;48.286;7.812;2023-02-24T03:16:23;7.50;87.80
72206;DHT22;60111;48.286;7.812;2023-02-24T03:18:59;7.50;87.70
72206;DHT22;60111;48.286;7.812;2023-02-24T03:21:43;7.60;87.20
72206;DHT22;60111;48.286;7.812;2023-02-24T03:24:17;7.60;87.30
72206;DHT22;60111;48.286;7.812;2023-02-24T03:26:52;7.60;87.40
72206;DHT22;60111;48.286;7.812;2023-02-24T03:29:43;7.60;87.70
72206;DHT22;60111;48.286;7.812;2023-02-24T03:32:26;7.70;87.50
72206;DHT22;60111;48.286;7.812;2023-02-24T03:35:17;7.80;86.80
72206;DHT22;60111;48.286;7.812;2023-02-24T03:37:48;7.80;86.50
72206;DHT22;60111;48.286;7.812;2023-02-24T03:40:22;7.70;86.60
72206;DHT22;60111;48.286;7.812;2023-02-24T03:43:02;7.80;86.50
72206;DHT22;60111;48.286;7.812;2023-02-24T03:45:37;7.80;86.60
72206;DHT22;60111;48.286;7.812;2023-02-24T03:48:11;7.80;86.70
72206;DHT22;60111;48.286;7.812;2023-02-24T03:50:44;7.90;86.70
72206;DHT22;60111;48.286;7.812;2023-02-24T03:53:48;8.00;86.00
72206;DHT22;60111;48.286;7.812;2023-02-24T03:56:30;8.00;85.90
72206;DHT22;60111;48.286;7.812;2023-02-24T03:59:24;7.90;86.00
72206;DHT22;60111;48.286;7.812;2023-02-24T04:02:02;7.90;86.40
72206;DHT22;60111;48.286;7.812;2023-02-24T04:04:57;7.90;86.90
72206;DHT22;60111;48.286;7.812;2023-02-24T04:07:52;7.90;87.10
72206;DHT22;60111;48.286;7.812;2023-02-24T04:10:48;7.90;87.50
72206;DHT22;60111;48.286;7.812;2023-02-24T04:16:23;7.90;88.50
72206;DHT22;60111;48.286;7.812;2023-02-24T04:18:59;7.90;88.30
72206;DHT22;60111;48.286;7.812;2023-02-24T04:21:35;7.90;88.60
72206;DHT22;60111;48.286;7.812;2023-02-24T04:24:08;7.90;89.20
72206;DHT22;60111;48.286;7.812;2023-02-24T04:26:44;8.00;89.40
72206;DHT22;60111;48.286;7.812;2023-02-24T04:29:23;8.00;89.20
72206;DHT22;60111;48.286;7.812;2023-02-24T04:31:59;8.10;89.00
72206;DHT22;60111;48.286;7.812;2023-02-24T04:34:32;8.10;88.90
72206;DHT22;60111;48.286;7.812;2023-02-24T04:37:05;8.20;88.50
72206;DHT22;60111;48.286;7.812;2023-02-24T04:39:38;8.20;88.30
72206;DHT22;60111;48.286;7.812;2023-02-24T04:42:11;8.30;87.50
72206;DHT22;60111;48.286;7.812;2023-02-24T04:44:43;8.30;86.80
72206;DHT22;60111;48.286;7.812;2023-02-24T04:47:17;8.30;87.10
72206;DHT22;60111;48.286;7.812;2023-02-24T04:49:49;8.30;87.40
72206;DHT22;60111;48.286;7.812;2023-02-24T04:52:22;8.20;87.70
72206;DHT22;60111;48.286;7.812;2023-02-24T04:54:54;8.30;87.60
72206;DHT22;60111;48.286;7.812;2023-02-24T04:57:28;8.10;88.00
72206;DHT22;60111;48.286;7.812;2023-02-24T05:00:01;8.10;88.80
72206;DHT22;60111;48.286;7.812;2023-02-24T05:02:35;8.10;88.70
72206;DHT22;60111;48.286;7.812;2023-02-24T05:05:08;8.00;88.90
72206;DHT22;60111;48.286;7.812;2023-02-24T05:07:41;8.00;88.80
72206;DHT22;60111;48.286;7.812;2023-02-24T05:10:15;8.00;88.90
72206;DHT22;60111;48.286;7.812;2023-02-24T05:12:49;8.10;88.50
72206;DHT22;60111;48.286;7.812;2023-02-24T05:15:22;8.10;88.40
72206;DHT22;60111;48.286;7.812;2023-02-24T05:18:03;8.10;88.50
72206;DHT22;60111;48.286;7.812;2023-02-24T05:20:42;8.00;88.20
72206;DHT22;60111;48.286;7.812;2023-02-24T05:23:38;8.00;88.30
72206;DHT22;60111;48.286;7.812;2023-02-24T05:26:14;8.00;87.90
72206;DHT22;60111;48.286;7.812;2023-02-24T05:28:50;8.00;87.30
72206;DHT22;60111;48.286;7.812;2023-02-24T05:31:25;8.10;86.80
72206;DHT22;60111;48.286;7.812;2023-02-24T05:34:04;8.10;86.30
72206;DHT22;60111;48.286;7.812;2023-02-24T05:36:38;8.10;86.40
72206;DHT22;60111;48.286;7.812;2023-02-24T05:39:11;8.00;87.00
72206;DHT22;60111;48.286;7.812;2023-02-24T05:41:47;8.00;87.10
72206;DHT22;60111;48.286;7.812;2023-02-24T05:44:22;7.90;87.00
72206;DHT22;60111;48.286;7.812;2023-02-24T05:46:57;8.00;86.60
72206;DHT22;60111;48.286;7.812;2023-02-24T05:49:32;8.00;86.40
72206;DHT22;60111;48.286;7.812;2023-02-24T05:52:06;7.90;87.00
72206;DHT22;60111;48.286;7.812;2023-02-24T05:54:41;8.00;87.30
72206;DHT22;60111;48.286;7.812;2023-02-24T05:57:17;8.00;86.80
72206;DHT22;60111;48.286;7.812;2023-02-24T05:59:55;7.90;86.70
72206;DHT22;60111;48.286;7.812;2023-02-24T06:02:27;7.90;86.90
72206;DHT22;60111;48.286;7.812;2023-02-24T06:05:02;7.90;87.10
72206;DHT22;60111;48.286;7.812;2023-02-24T06:07:35;7.80;87.40
72206;DHT22;60111;48.286;7.812;2023-02-24T06:10:08;7.80;87.80
72206;DHT22;60111;48.286;7.812;2023-02-24T06:12:41;7.90;87.40
72206;DHT22;60111;48.286;7.812;2023-02-24T06:15:13;7.90;87.30
72206;DHT22;60111;48.286;7.812;2023-02-24T06:17:47;8.00;87.50
72206;DHT22;60111;48.286;7.812;2023-02-24T06:20:20;8.00;87.60
72206;DHT22;60111;48.286;7.812;2023-02-24T06:22:54;7.90;88.10
72206;DHT22;60111;48.286;7.812;2023-02-24T06:25:28;7.90;88.50
72206;DHT22;60111;48.286;7.812;2023-02-24T06:28:02;8.00;87.70
72206;DHT22;60111;48.286;7.812;2023-02-24T06:30:35;8.00;87.30
72206;DHT22;60111;48.286;7.812;2023-02-24T06:33:08;8.00;86.90
72206;DHT22;60111;48.286;7.812;2023-02-24T06:35:41;8.00;86.80
72206;DHT22;60111;48.286;7.812;2023-02-24T06:38:13;8.00;86.50
72206;DHT22;60111;48.286;7.812;2023-02-24T06:40:46;8.00;86.20
72206;DHT22;60111;48.286;7.812;2023-02-24T06:43:20;8.00;86.30
72206;DHT22;60111;48.286;7.812;2023-02-24T06:45:52;8.00;86.30
72206;DHT22;60111;48.286;7.812;2023-02-24T06:48:25;8.00;86.50
72206;DHT22;60111;48.286;7.812;2023-02-24T06:51:05;8.10;85.70
72206;DHT22;60111;48.286;7.812;2023-02-24T06:53:36;8.10;85.50
72206;DHT22;60111;48.286;7.812;2023-02-24T06:56:12;8.10;85.90
72206;DHT22;60111;48.286;7.812;2023-02-24T06:58:52;8.10;86.20
72206;DHT22;60111;48.286;7.812;2023-02-24T07:01:26;8.10;86.10
72206;DHT22;60111;48.286;7.812;2023-02-24T07:04:00;8.10;86.00
72206;DHT22;60111;48.286;7.812;2023-02-24T07:06:41;8.20;85.40
72206;DHT22;60111;48.286;7.812;2023-02-24T07:09:15;8.20;85.90
72206;DHT22;60111;48.286;7.812;2023-02-24T07:11:50;8.10;86.00
72206;DHT22;60111;48.286;7.812;2023-02-24T07:14:25;8.10;86.30
72206;DHT22;60111;48.286;7.812;2023-02-24T07:16:59;8.10;86.70
72206;DHT22;60111;48.286;7.812;2023-02-24T07:19:32;8.10;87.20
72206;DHT22;60111;48.286;7.812;2023-02-24T07:22:04;8.00;87.70
72206;DHT22;60111;48.286;7.812;2023-02-24T07:24:37;7.90;88.00
72206;DHT22;60111;48.286;7.812;2023-02-24T07:27:14;7.90;88.60
72206;DHT22;60111;48.286;7.812;2023-02-24T07:29:50;7.80;89.00
72206;DHT22;60111;48.286;7.812;2023-02-24T07:32:24;7.80;89.80
72206;DHT22;60111;48.286;7.812;2023-02-24T07:34:56;7.80;89.70
72206;DHT22;60111;48.286;7.812;2023-02-24T07:37:29;7.80;89.90
72206;DHT22;60111;48.286;7.812;2023-02-24T07:40:02;7.80;89.90
72206;DHT22;60111;48.286;7.812;2023-02-24T07:42:37;7.80;90.60
72206;DHT22;60111;48.286;7.812;2023-02-24T07:45:09;7.80;90.70
72206;DHT22;60111;48.286;7.812;2023-02-24T07:47:43;7.90;90.70
72206;DHT22;60111;48.286;7.812;2023-02-24T07:50:16;7.90;90.70
72206;DHT22;60111;48.286;7.812;2023-02-24T07:52:50;7.80;91.00
72206;DHT22;60111;48.286;7.812;2023-02-24T07:55:22;7.80;91.70
72206;DHT22;60111;48.286;7.812;2023-02-24T07:57:56;7.80;92.50
72206;DHT22;60111;48.286;7.812;2023-02-24T08:00:31;7.90;92.50
72206;DHT22;60111;48.286;7.812;2023-02-24T08:03:05;7.90;92.40
72206;DHT22;60111;48.286;7.812;2023-02-24T08:05:37;7.90;91.90
72206;DHT22;60111;48.286;7.812;2023-02-24T08:08:10;7.90;92.20
72206;DHT22;60111;48.286;7.812;2023-02-24T08:10:43;8.00;91.70
72206;DHT22;60111;48.286;7.812;2023-02-24T08:13:17;8.00;91.30
72206;DHT22;60111;48.286;7.812;2023-02-24T08:15:50;8.00;91.30
72206;DHT22;60111;48.286;7.812;2023-02-24T08:18:24;8.00;91.40
72206;DHT22;60111;48.286;7.812;2023-02-24T08:20:58;8.00;91.30
72206;DHT22;60111;48.286;7.812;2023-02-24T08:23:33;8.00;91.70
72206;DHT22;60111;48.286;7.812;2023-02-24T08:26:06;8.00;92.20
72206;DHT22;60111;48.286;7.812;2023-02-24T08:28:41;8.00;92.10
72206;DHT22;60111;48.286;7.812;2023-02-24T08:31:14;8.00;92.20
72206;DHT22;60111;48.286;7.812;2023-02-24T08:33:48;8.00;92.20
72206;DHT22;60111;48.286;7.812;2023-02-24T08:36:21;8.00;92.30
72206;DHT22;60111;48.286;7.812;2023-02-24T08:38:54;8.00;92.80
72206;DHT22;60111;48.286;7.812;2023-02-24T08:41:29;8.10;92.70
72206;DHT22;60111;48.286;7.812;2023-02-24T08:44:03;8.10;92.60
72206;DHT22;60111;48.286;7.812;2023-02-24T08:46:35;8.20;92.30
72206;DHT22;60111;48.286;7.812;2023-02-24T08:49:10;8.20;92.00
72206;DHT22;60111;48.286;7.812;2023-02-24T08:51:45;8.20;92.20
72206;DHT22;60111;48.286;7.812;2023-02-24T08:54:22;8.30;92.20
72206;DHT22;60111;48.286;7.812;2023-02-24T08:56:59;8.30;92.10
72206;DHT22;60111;48.286;7.812;2023-02-24T08:59:35;8.40;91.70
72206;DHT22;60111;48.286;7.812;2023-02-24T09:02:20;8.40;91.40
72206;DHT22;60111;48.286;7.812;2023-02-24T09:04:59;8.50;91.10
72206;DHT22;60111;48.286;7.812;2023-02-24T09:07:36;8.40;91.30
72206;DHT22;60111;48.286;7.812;2023-02-24T09:10:17;8.60;91.50
72206;DHT22;60111;48.286;7.812;2023-02-24T09:12:50;8.70;91.30
72206;DHT22;60111;48.286;7.812;2023-02-24T09:15:24;8.80;90.50
72206;DHT22;60111;48.286;7.812;2023-02-24T09:17:58;8.90;90.20
72206;DHT22;60111;48.286;7.812;2023-02-24T09:20:51;9.00;89.10
72206;DHT22;60111;48.286;7.812;2023-02-24T09:23:27;9.00;88.80
72206;DHT22;60111;48.286;7.812;2023-02-24T09:26:04;9.00;88.90
72206;DHT22;60111;48.286;7.812;2023-02-24T09:28:38;9.00;88.60
72206;DHT22;60111;48.286;7.812;2023-02-24T09:31:13;9.00;87.60
72206;DHT22;60111;48.286;7.812;2023-02-24T09:33:50;9.00;87.50
72206;DHT22;60111;48.286;7.812;2023-02-24T09:36:23;9.10;87.50
72206;DHT22;60111;48.286;7.812;2023-02-24T09:39:01;9.20;85.90
72206;DHT22;60111;48.286;7.812;2023-02-24T09:41:46;9.20;85.70
72206;DHT22;60111;48.286;7.812;2023-02-24T09:44:41;9.20;86.40
72206;DHT22;60111;48.286;7.812;2023-02-24T09:47:40;9.20;86.40
72206;DHT22;60111;48.286;7.812;2023-02-24T09:50:30;9.20;87.10
72206;DHT22;60111;48.286;7.812;2023-02-24T09:53:01;9.20;87.40
72206;DHT22;60111;48.286;7.812;2023-02-24T09:55:59;9.20;87.20
72206;DHT22;60111;48.286;7.812;2023-02-24T09:58:50;9.20;86.80
72206;DHT22;60111;48.286;7.812;2023-02-24T10:01:39;9.20;86.70
72206;DHT22;60111;48.286;7.812;2023-02-24T10:07:35;9.30;86.20
72206;DHT22;60111;48.286;7.812;2023-02-24T10:10:21;9.30;86.10
72206;DHT22;60111;48.286;7.812;2023-02-24T10:12:57;9.30;85.90
72206;DHT22;60111;48.286;7.812;2023-02-24T10:15:33;9.40;85.70
72206;DHT22;60111;48.286;7.812;2023-02-24T10:18:41;9.40;85.70
72206;DHT22;60111;48.286;7.812;2023-02-24T10:21:40;9.40;85.50
72206;DHT22;60111;48.286;7.812;2023-02-24T10:24:19;9.50;85.40
72206;DHT22;60111;48.286;7.812;2023-02-24T10:26:55;9.50;84.90
72206;DHT22;60111;48.286;7.812;2023-02-24T10:32:29;9.60;84.30
72206;DHT22;60111;48.286;7.812;2023-02-24T10:34:59;9.70;83.80
72206;DHT22;60111;48.286;7.812;2023-02-24T10:37:32;9.70;83.00
72206;DHT22;60111;48.286;7.812;2023-02-24T10:40:06;9.70;83.00
72206;DHT22;60111;48.286;7.812;2023-02-24T10:42:43;9.70;83.10
72206;DHT22;60111;48.286;7.812;2023-02-24T10:45:23;9.70;83.50
72206;DHT22;60111;48.286;7.812;2023-02-24T10:47:57;9.70;82.90
72206;DHT22;60111;48.286;7.812;2023-02-24T10:50:40;9.70;82.90
72206;DHT22;60111;48.286;7.812;2023-02-24T10:53:16;9.70;83.30
72206;DHT22;60111;48.286;7.812;2023-02-24T10:56:12;9.70;83.30
72206;DHT22;60111;48.286;7.812;2023-02-24T10:59:13;9.60;83.60
72206;DHT22;60111;48.286;7.812;2023-02-24T11:04:39;9.70;83.50
72206;DHT22;60111;48.286;7.812;2023-02-24T11:07:16;9.70;83.50
72206;DHT22;60111;48.286;7.812;2023-02-24T11:10:15;9.80;83.50
72206;DHT22;60111;48.286;7.812;2023-02-24T11:12:49;9.90;83.20
72206;DHT22;60111;48.286;7.812;2023-02-24T11:15:52;10.00;82.90
72206;DHT22;60111;48.286;7.812;2023-02-24T11:18:46;10.00;82.50
72206;DHT22;60111;48.286;7.812;2023-02-24T11:21:23;10.00;82.20
72206;DHT22;60111;48.286;7.812;2023-02-24T11:23:58;10.10;82.30
72206;DHT22;60111;48.286;7.812;2023-02-24T11:26:39;10.10;82.10
72206;DHT22;60111;48.286;7.812;2023-02-24T11:29:22;10.10;82.00
72206;DHT22;60111;48.286;7.812;2023-02-24T11:32:15;10.10;81.90
72206;DHT22;60111;48.286;7.812;2023-02-24T11:37:40;10.10;81.60
72206;DHT22;60111;48.286;7.812;2023-02-24T11:40:21;10.10;81.40
72206;DHT22;60111;48.286;7.812;2023-02-24T11:45:53;10.20;81.10
72206;DHT22;60111;48.286;7.812;2023-02-24T11:48:35;10.30;80.90
72206;DHT22;60111;48.286;7.812;2023-02-24T11:51:15;10.40;80.80
72206;DHT22;60111;48.286;7.812;2023-02-24T11:54:55;10.60;80.50
72206;DHT22;60111;48.286;7.812;2023-02-24T11:56:44;10.80;79.80
72206;DHT22;60111;48.286;7.812;2023-02-24T12:02:01;11.10;77.50
72206;DHT22;60111;48.286;7.812;2023-02-24T12:04:55;11.20;77.00
72206;DHT22;60111;48.286;7.812;2023-02-24T12:10:26;11.30;75.50
72206;DHT22;60111;48.286;7.812;2023-02-24T12:15:55;11.30;75.90
72206;DHT22;60111;48.286;7.812;2023-02-24T12:18:44;11.30;75.20
72206;DHT22;60111;48.286;7.812;2023-02-24T12:21:20;11.40;75.30
72206;DHT22;60111;48.286;7.812;2023-02-24T12:23:51;11.30;75.20
72206;DHT22;60111;48.286;7.812;2023-02-24T12:26:38;11.30;75.00
72206;DHT22;60111;48.286;7.812;2023-02-24T12:35:28;11.30;75.30
72206;DHT22;60111;48.286;7.812;2023-02-24T12:40:49;11.30;75.20
72206;DHT22;60111;48.286;7.812;2023-02-24T12:43:30;11.20;75.20
72206;DHT22;60111;48.286;7.812;2023-02-24T12:46:17;11.20;75.30
72206;DHT22;60111;48.286;7.812;2023-02-24T12:48:54;11.20;74.80
72206;DHT22;60111;48.286;7.812;2023-02-24T12:57:16;11.20;75.30
72206;DHT22;60111;48.286;7.812;2023-02-24T12:59:45;11.20;75.20
72206;DHT22;60111;48.286;7.812;2023-02-24T13:02:50;11.20;75.30
72206;DHT22;60111;48.286;7.812;2023-02-24T13:11:12;11.20;75.10
72206;DHT22;60111;48.286;7.812;2023-02-24T13:13:47;11.20;74.70
72206;DHT22;60111;48.286;7.812;2023-02-24T13:16:33;11.10;74.70
72206;DHT22;60111;48.286;7.812;2023-02-24T13:19:18;11.20;75.00
72206;DHT22;60111;48.286;7.812;2023-02-24T13:27:36;11.30;74.60
72206;DHT22;60111;48.286;7.812;2023-02-24T13:36:05;11.10;75.50
72206;DHT22;60111;48.286;7.812;2023-02-24T13:47:12;11.00;75.40
72206;DHT22;60111;48.286;7.812;2023-02-24T13:52:46;11.00;75.60
72206;DHT22;60111;48.286;7.812;2023-02-24T13:59:04;11.10;75.10
72206;DHT22;60111;48.286;7.812;2023-02-24T14:03:34;11.10;74.90
72206;DHT22;60111;48.286;7.812;2023-02-24T14:06:22;11.00;75.10
72206;DHT22;60111;48.286;7.812;2023-02-24T14:08:58;11.00;74.80
72206;DHT22;60111;48.286;7.812;2023-02-24T14:11:34;10.90;75.20
72206;DHT22;60111;48.286;7.812;2023-02-24T14:14:14;10.90;75.50
72206;DHT22;60111;48.286;7.812;2023-02-24T14:16:43;11.00;75.50
72206;DHT22;60111;48.286;7.812;2023-02-24T14:19:18;11.00;75.40
72206;DHT22;60111;48.286;7.812;2023-02-24T14:21:53;11.00;75.10
72206;DHT22;60111;48.286;7.812;2023-02-24T14:24:27;11.10;74.70
72206;DHT22;60111;48.286;7.812;2023-02-24T14:27:01;11.10;75.00
72206;DHT22;60111;48.286;7.812;2023-02-24T14:29:35;11.10;74.80
72206;DHT22;60111;48.286;7.812;2023-02-24T14:32:19;11.20;74.70
72206;DHT22;60111;48.286;7.812;2023-02-24T14:34:53;11.30;74.10
72206;DHT22;60111;48.286;7.812;2023-02-24T14:37:35;11.30;74.50
72206;DHT22;60111;48.286;7.812;2023-02-24T14:40:13;11.30;73.60
72206;DHT22;60111;48.286;7.812;2023-02-24T14:42:47;11.30;74.00
72206;DHT22;60111;48.286;7.812;2023-02-24T14:45:25;11.30;73.70
72206;DHT22;60111;48.286;7.812;2023-02-24T14:47:58;11.40;73.70
72206;DHT22;60111;48.286;7.812;2023-02-24T14:50:31;11.50;73.40
72206;DHT22;60111;48.286;7.812;2023-02-24T14:53:07;11.50;73.40
72206;DHT22;60111;48.286;7.812;2023-02-24T14:55:42;11.50;73.90
72206;DHT22;60111;48.286;7.812;2023-02-24T14:58:21;11.70;73.10
72206;DHT22;60111;48.286;7.812;2023-02-24T15:01:05;11.80;72.90
72206;DHT22;60111;48.286;7.812;2023-02-24T15:03:44;11.90;72.30
72206;DHT22;60111;48.286;7.812;2023-02-24T15:06:26;11.90;71.90
72206;DHT22;60111;48.286;7.812;2023-02-24T15:09:01;11.90;71.90
72206;DHT22;60111;48.286;7.812;2023-02-24T15:11:34;11.90;72.00
72206;DHT22;60111;48.286;7.812;2023-02-24T15:14:18;11.80;72.30
72206;DHT22;60111;48.286;7.812;2023-02-24T15:16:51;11.80;72.50
72206;DHT22;60111;48.286;7.812;2023-02-24T15:19:29;11.90;71.70
72206;DHT22;60111;48.286;7.812;2023-02-24T15:22:00;11.90;71.10
72206;DHT22;60111;48.286;7.812;2023-02-24T15:24:34;11.80;71.30
72206;DHT22;60111;48.286;7.812;2023-02-24T15:30:00;11.70;71.90
72206;DHT22;60111;48.286;7.812;2023-02-24T15:32:35;11.60;72.50
72206;DHT22;60111;48.286;7.812;2023-02-24T15:35:20;11.60;72.80
72206;DHT22;60111;48.286;7.812;2023-02-24T15:37:44;11.60;72.80
72206;DHT22;60111;48.286;7.812;2023-02-24T15:40:19;11.70;72.50
72206;DHT22;60111;48.286;7.812;2023-02-24T15:43:08;11.70;72.30
72206;DHT22;60111;48.286;7.812;2023-02-24T15:45:40;11.70;72.30
72206;DHT22;60111;48.286;7.812;2023-02-24T15:48:22;11.70;72.10
72206;DHT22;60111;48.286;7.812;2023-02-24T15:50:58;11.80;71.70
72206;DHT22;60111;48.286;7.812;2023-02-24T15:53:32;11.80;71.50
72206;DHT22;60111;48.286;7.812;2023-02-24T15:56:05;11.80;71.40
72206;DHT22;60111;48.286;7.812;2023-02-24T15:58:39;11.70;72.00
72206;DHT22;60111;48.286;7.812;2023-02-24T16:01:12;11.60;72.30
72206;DHT22;60111;48.286;7.812;2023-02-24T16:03:45;11.60;72.40
72206;DHT22;60111;48.286;7.812;2023-02-24T16:06:19;11.60;72.10
72206;DHT22;60111;48.286;7.812;2023-02-24T16:08:52;11.60;72.30
72206;DHT22;60111;48.286;7.812;2023-02-24T16:11:27;11.60;72.00
72206;DHT22;60111;48.286;7.812;2023-02-24T16:14:00;11.60;72.30
72206;DHT22;60111;48.286;7.812;2023-02-24T16:16:33;11.50;72.40
72206;DHT22;60111;48.286;7.812;2023-02-24T16:19:06;11.60;72.70
72206;DHT22;60111;48.286;7.812;2023-02-24T16:21:39;11.50;72.80
72206;DHT22;60111;48.286;7.812;2023-02-24T16:24:12;11.40;72.50
72206;DHT22;60111;48.286;7.812;2023-02-24T16:26:44;11.50;72.20
72206;DHT22;60111;48.286;7.812;2023-02-24T16:29:17;11.50;72.60
72206;DHT22;60111;48.286;7.812;2023-02-24T16:31:50;11.40;73.10
72206;DHT22;60111;48.286;7.812;2023-02-24T16:34:23;11.40;73.50
72206;DHT22;60111;48.286;7.812;2023-02-24T16:36:55;11.40;73.70
72206;DHT22;60111;48.286;7.812;2023-02-24T16:39:28;11.30;74.00
72206;DHT22;60111;48.286;7.812;2023-02-24T16:42:01;11.30;74.20
72206;DHT22;60111;48.286;7.812;2023-02-24T16:44:34;11.30;74.10
72206;DHT22;60111;48.286;7.812;2023-02-24T16:47:14;11.30;74.20
72206;DHT22;60111;48.286;7.812;2023-02-24T16:49:42;11.30;74.20
72206;DHT22;60111;48.286;7.812;2023-02-24T16:52:15;11.20;74.50
72206;DHT22;60111;48.286;7.812;2023-02-24T16:54:51;11.20;74.70
72206;DHT22;60111;48.286;7.812;2023-02-24T16:57:23;11.20;74.80
72206;DHT22;60111;48.286;7.812;2023-02-24T16:59:56;11.20;75.10
72206;DHT22;60111;48.286;7.812;2023-02-24T17:02:29;11.20;75.20
72206;DHT22;60111;48.286;7.812;2023-02-24T17:05:01;11.20;75.40
72206;DHT22;60111;48.286;7.812;2023-02-24T17:07:34;11.10;75.40
72206;DHT22;60111;48.286;7.812;2023-02-24T17:10:09;11.10;75.50
72206;DHT22;60111;48.286;7.812;2023-02-24T17:12:41;11.00;75.60
72206;DHT22;60111;48.286;7.812;2023-02-24T17:15:17;11.00;75.70
72206;DHT22;60111;48.286;7.812;2023-02-24T17:17:50;11.00;75.70
72206;DHT22;60111;48.286;7.812;2023-02-24T17:20:23;11.00;75.90
72206;DHT22;60111;48.286;7.812;2023-02-24T17:22:56;10.90;76.10
72206;DHT22;60111;48.286;7.812;2023-02-24T17:25:30;10.90;76.00
72206;DHT22;60111;48.286;7.812;2023-02-24T17:28:03;10.90;76.10
72206;DHT22;60111;48.286;7.812;2023-02-24T17:30:36;10.90;76.10
72206;DHT22;60111;48.286;7.812;2023-02-24T17:33:09;11.00;75.80
72206;DHT22;60111;48.286;7.812;2023-02-24T17:35:44;11.00;76.00
72206;DHT22;60111;48.286;7.812;2023-02-24T17:38:20;11.00;76.20
72206;DHT22;60111;48.286;7.812;2023-02-24T17:40:54;10.90;76.40
72206;DHT22;60111;48.286;7.812;2023-02-24T17:43:28;10.90;76.60
72206;DHT22;60111;48.286;7.812;2023-02-24T17:46:01;10.90;76.80
72206;DHT22;60111;48.286;7.812;2023-02-24T17:48:34;10.90;76.90
72206;DHT22;60111;48.286;7.812;2023-02-24T17:51:16;10.90;76.90
72206;DHT22;60111;48.286;7.812;2023-02-24T17:53:41;10.80;77.20
72206;DHT22;60111;48.286;7.812;2023-02-24T17:56:13;10.80;77.30
72206;DHT22;60111;48.286;7.812;2023-02-24T17:58:46;10.80;77.60
72206;DHT22;60111;48.286;7.812;2023-02-24T18:01:18;10.80;77.50
72206;DHT22;60111;48.286;7.812;2023-02-24T18:03:54;10.70;77.60
72206;DHT22;60111;48.286;7.812;2023-02-24T18:06:27;10.70;77.70
72206;DHT22;60111;48.286;7.812;2023-02-24T18:09:02;10.70;77.80
72206;DHT22;60111;48.286;7.812;2023-02-24T18:11:35;10.70;77.80
72206;DHT22;60111;48.286;7.812;2023-02-24T18:14:07;10.60;77.90
72206;DHT22;60111;48.286;7.812;2023-02-24T18:16:40;10.60;77.80